Time;durP1;ratioP1;P1;durP2;ratioP2;P2;SDS_P1;SDS_P2;PMS_P1;PMS_P2;Temp;Humidity;BMP_temperature;BMP_pressure;BME280_temperature;BME280_humidity;BME280_pressure;Samples;Min_cycle;Max_cycle;Signal;HPM_P1;HPM_P2
2023/05/22 00:02:07;;;;;;;12.52;11.25;;;;;;;17.45;83.04;98254.03;5041827;27;103125;-61
2023/05/22 00:04:36;;;;;;;14.07;12.77;;;;;;;17.54;81.82;98250.41;5010397;27;102650;-61
2023/05/22 00:07:05;;;;;;;12.93;11.70;;;;;;;17.72;80.71;98247.56;5043603;27;102752;-61
2023/05/22 00:09:33;;;;;;;14.48;13.07;;;;;;;17.38;82.02;98251.19;5045286;27;104260;-61
2023/05/22 00:12:02;;;;;;;14.95;13.40;;;;;;;17.23;82.64;98242.16;5043770;27;103059;-61
2023/05/22 00:14:31;;;;;;;13.90;12.52;;;;;;;17.02;83.86;98249.75;5046866;27;102646;-64
2023/05/22 00:17:00;;;;;;;12.30;10.95;;;;;;;17.16;83.63;98240.28;5044908;27;102982;-64
2023/05/22 00:19:29;;;;;;;13.43;12.10;;;;;;;17.08;83.29;98237.59;5046993;27;104391;-64
2023/05/22 00:21:57;;;;;;;12.25;11.15;;;;;;;17.20;82.92;98241.63;5049169;27;109300;-64
2023/05/22 00:24:25;;;;;;;11.32;10.32;;;;;;;17.40;81.60;98240.34;5028472;27;102774;-64
2023/05/22 00:26:53;;;;;;;14.55;13.15;;;;;;;17.20;82.24;98238.97;5043611;27;102734;-63
2023/05/22 00:29:23;;;;;;;13.18;11.95;;;;;;;17.18;82.70;98238.28;5044466;27;108611;-63
2023/05/22 00:31:51;;;;;;;14.38;12.93;;;;;;;16.88;84.63;98244.19;5046400;27;103213;-64
2023/05/22 00:34:19;;;;;;;14.45;13.05;;;;;;;16.88;84.38;98241.53;5025439;27;103220;-64
2023/05/22 00:36:47;;;;;;;14.15;12.75;;;;;;;16.67;85.28;98240.09;5042508;27;102809;-64
2023/05/22 00:39:15;;;;;;;12.55;11.35;;;;;;;16.69;85.64;98243.47;5032432;27;103189;-64
2023/05/22 00:41:46;;;;;;;13.13;11.82;;;;;;;16.61;84.83;98238.09;5044858;27;103133;-64
2023/05/22 00:44:14;;;;;;;12.90;11.70;;;;;;;16.52;85.85;98239.00;5038857;27;102778;-64
2023/05/22 00:46:43;;;;;;;13.10;11.90;;;;;;;16.83;84.08;98238.50;5023074;27;102685;-63
2023/05/22 00:49:11;;;;;;;11.75;10.55;;;;;;;17.07;82.39;98233.25;5046556;27;103944;-63
2023/05/22 00:51:39;;;;;;;10.75;9.75;;;;;;;17.13;81.93;98235.25;5044737;27;103193;-63
2023/05/22 00:54:07;;;;;;;12.88;11.68;;;;;;;16.99;81.46;98228.72;5046508;27;102699;-63
2023/05/22 00:56:36;;;;;;;14.80;13.38;;;;;;;16.62;84.28;98237.06;5039853;27;102714;-63
2023/05/22 00:59:04;;;;;;;12.77;11.57;;;;;;;16.52;84.43;98238.16;5009908;27;106177;-63
2023/05/22 01:01:35;;;;;;;13.35;12.10;;;;;;;16.04;87.89;98244.03;5039415;27;103106;-64
2023/05/22 01:04:06;;;;;;;14.48;13.02;;;;;;;15.80;89.58;98239.38;5042696;27;102770;-63
2023/05/22 01:06:35;;;;;;;15.07;13.68;;;;;;;15.84;90.48;98242.53;5044032;27;104205;-64
2023/05/22 01:09:05;;;;;;;13.02;11.82;;;;;;;16.26;87.29;98246.19;5033109;27;104554;-63
2023/05/22 01:11:40;;;;;;;12.15;11.00;;;;;;;16.38;86.45;98249.41;5044137;27;103247;-63
2023/05/22 01:14:15;;;;;;;14.10;12.70;;;;;;;16.48;85.09;98245.63;5047878;27;102750;-63
2023/05/22 01:16:50;;;;;;;14.25;12.88;;;;;;;16.24;85.78;98240.19;5041264;27;103100;-64
2023/05/22 01:19:38;;;;;;;13.48;12.27;;;;;;;16.35;86.12;98247.91;5042919;27;103331;-64
2023/05/22 01:22:30;;;;;;;10.35;9.45;;;;;;;16.39;85.79;98246.63;5031929;27;103362;-64
2023/05/22 01:25:20;;;;;;;12.55;11.35;;;;;;;16.47;84.51;98249.31;5042520;27;102714;-64
2023/05/22 01:28:13;;;;;;;13.43;12.13;;;;;;;16.50;83.97;98249.00;5047469;27;102638;-64
2023/05/22 01:30:48;;;;;;;14.50;13.00;;;;;;;16.34;84.51;98248.91;5028314;27;110176;-64
2023/05/22 01:33:17;;;;;;;13.25;11.93;;;;;;;16.03;86.95;98250.34;5042878;27;103342;-63
2023/05/22 01:35:52;;;;;;;13.80;12.50;;;;;;;16.14;86.54;98258.13;5045757;27;102688;-63
2023/05/22 01:38:21;;;;;;;12.38;11.10;;;;;;;16.09;87.43;98255.06;5042803;27;102901;-64
2023/05/22 01:40:50;;;;;;;14.18;12.88;;;;;;;16.00;86.69;98256.00;5027519;27;103444;-64
2023/05/22 01:43:20;;;;;;;13.80;12.55;;;;;;;16.22;85.73;98256.31;5040503;27;103144;-65
2023/05/22 01:45:50;;;;;;;12.32;11.23;;;;;;;16.32;85.26;98250.03;5041215;27;103735;-63
2023/05/22 01:48:18;;;;;;;11.55;10.52;;;;;;;16.42;83.98;98251.59;5042322;27;103426;-65
2023/05/22 01:50:50;;;;;;;14.40;12.05;;;;;;;16.17;85.75;98258.63;5042810;27;103240;-63
2023/05/22 01:53:29;;;;;;;12.52;11.32;;;;;;;16.20;84.99;98257.47;5026282;27;103863;-63
2023/05/22 01:56:05;;;;;;;13.68;12.32;;;;;;;16.07;85.46;98263.22;5039613;27;102742;-64
2023/05/22 01:58:40;;;;;;;13.93;12.60;;;;;;;15.77;87.38;98261.00;5040076;27;103755;-63
2023/05/22 02:01:12;;;;;;;12.30;11.18;;;;;;;16.00;86.99;98270.16;5043284;27;103474;-63
2023/05/22 02:03:45;;;;;;;13.00;11.60;;;;;;;16.06;85.68;98269.53;5046446;27;103252;-63
2023/05/22 02:06:14;;;;;;;13.52;12.27;;;;;;;15.96;85.93;98268.81;5046760;27;102813;-64
2023/05/22 02:08:43;;;;;;;14.48;13.07;;;;;;;15.90;86.23;98261.44;5038315;27;103278;-63
2023/05/22 02:11:13;;;;;;;13.60;12.35;;;;;;;15.91;87.12;98273.75;5044641;27;104921;-63
2023/05/22 02:13:42;;;;;;;13.52;12.20;;;;;;;16.01;85.89;98271.00;5041755;27;103025;-63
2023/05/22 02:16:12;;;;;;;13.18;11.95;;;;;;;15.98;84.97;98263.31;5042404;27;103379;-63
2023/05/22 02:18:42;;;;;;;13.57;11.85;;;;;;;15.91;86.26;98267.59;5024764;27;102697;-64
2023/05/22 02:21:13;;;;;;;13.10;11.90;;;;;;;15.86;86.10;98269.88;5045255;27;103215;-64
2023/05/22 02:23:41;;;;;;;13.65;12.35;;;;;;;15.66;87.95;98264.72;5043235;27;103222;-64
2023/05/22 02:26:09;;;;;;;14.27;12.90;;;;;;;15.46;88.40;98262.34;5026111;27;102748;-63
2023/05/22 02:28:41;;;;;;;14.60;13.30;;;;;;;15.42;88.90;98261.78;5037687;27;102635;-63
2023/05/22 02:31:11;;;;;;;13.93;12.52;;;;;;;15.60;87.66;98260.00;5038733;27;103404;-63
2023/05/22 02:33:40;;;;;;;11.93;10.82;;;;;;;15.82;86.58;98258.69;5045259;27;103210;-63
2023/05/22 02:36:09;;;;;;;12.25;10.93;;;;;;;15.95;84.99;98256.47;5046385;27;102774;-63
2023/05/22 02:38:37;;;;;;;14.25;12.95;;;;;;;15.78;85.17;98257.31;5047285;27;102613;-63
2023/05/22 02:41:05;;;;;;;14.25;12.90;;;;;;;15.58;87.05;98256.66;5033133;27;104297;-63
2023/05/22 02:43:34;;;;;;;14.85;13.38;;;;;;;15.38;88.71;98255.09;5026137;27;103225;-63
2023/05/22 02:46:02;;;;;;;14.18;12.77;;;;;;;15.27;90.21;98257.16;5049291;27;102677;-63
2023/05/22 02:48:31;;;;;;;14.00;12.75;;;;;;;15.35;89.92;98260.75;5043015;27;102910;-63
2023/05/22 02:51:04;;;;;;;13.95;12.65;;;;;;;15.32;90.50;98254.88;5031386;27;104495;-63
2023/05/22 02:53:34;;;;;;;11.07;10.13;;;;;;;15.55;89.69;98256.94;5031836;27;103146;-63
2023/05/22 02:56:02;;;;;;;14.55;13.05;;;;;;;15.64;88.29;98258.69;5043073;27;102602;-63
2023/05/22 02:58:30;;;;;;;10.43;9.45;;;;;;;15.64;88.13;98258.69;5035316;27;103075;-63
2023/05/22 03:00:58;;;;;;;12.20;11.10;;;;;;;15.72;87.67;98257.94;5029452;27;104613;-63
2023/05/22 03:03:30;;;;;;;14.15;12.75;;;;;;;15.63;88.19;98261.53;5033037;27;103211;-64
2023/05/22 03:06:00;;;;;;;12.03;10.93;;;;;;;15.78;87.88;98262.66;5046370;27;103233;-63
2023/05/22 03:08:28;;;;;;;14.57;13.25;;;;;;;15.77;87.51;98266.31;5030505;27;103159;-63
2023/05/22 03:10:57;;;;;;;13.40;11.73;;;;;;;15.75;87.67;98264.81;5025954;27;104423;-63
2023/05/22 03:13:25;;;;;;;13.70;12.40;;;;;;;15.91;86.75;98267.59;5045259;27;103283;-63
2023/05/22 03:15:53;;;;;;;11.65;10.57;;;;;;;15.99;85.96;98270.31;5035173;27;102662;-63
2023/05/22 03:18:22;;;;;;;13.68;12.38;;;;;;;15.83;86.62;98271.00;5028050;27;102792;-64
2023/05/22 03:20:56;;;;;;;14.50;13.10;;;;;;;15.77;86.13;98270.81;5029402;27;104157;-63
2023/05/22 03:23:25;;;;;;;13.95;12.55;;;;;;;15.63;87.85;98273.00;5027872;27;104335;-63
2023/05/22 03:25:54;;;;;;;15.60;14.10;;;;;;;15.57;87.62;98278.97;5046285;27;102681;-63
2023/05/22 03:28:26;;;;;;;11.27;10.20;;;;;;;15.66;87.35;98283.34;5043557;27;103874;-63
2023/05/22 03:30:54;;;;;;;14.02;12.80;;;;;;;15.41;87.90;98281.41;5040627;27;103228;-63
2023/05/22 03:33:26;;;;;;;14.98;13.18;;;;;;;15.46;88.39;98286.28;5050905;27;103691;-63
2023/05/22 03:35:55;;;;;;;17.58;14.07;;;;;;;15.45;87.73;98285.44;5028504;27;102698;-64
2023/05/22 03:38:23;;;;;;;13.52;12.32;;;;;;;15.49;87.68;98281.53;5041934;27;102681;-63
2023/05/22 03:40:53;;;;;;;12.57;11.43;;;;;;;15.37;89.19;98289.84;5030490;27;103189;-58
2023/05/22 03:43:21;;;;;;;14.75;13.30;;;;;;;15.21;90.61;98290.53;5043469;27;103075;-57
2023/05/22 03:45:50;;;;;;;14.65;13.20;;;;;;;15.42;89.75;98291.06;5044210;27;102589;-57
2023/05/22 03:48:18;;;;;;;14.75;13.25;;;;;;;15.64;88.83;98292.47;5029108;27;102848;-61
2023/05/22 03:50:46;;;;;;;15.65;14.00;;;;;;;15.65;87.90;98291.50;5036769;27;103380;-61
2023/05/22 03:53:14;;;;;;;14.20;12.90;;;;;;;15.80;87.30;98289.97;5037781;27;104402;-61
2023/05/22 03:55:42;;;;;;;14.80;13.40;;;;;;;15.74;87.32;98295.91;5045011;27;102770;-61
2023/05/22 03:58:11;;;;;;;15.53;13.93;;;;;;;15.40;88.96;98295.72;5023645;27;103224;-61
2023/05/22 04:00:41;;;;;;;15.40;13.82;;;;;;;14.97;92.38;98296.38;5047915;27;103284;-61
2023/05/22 04:03:11;;;;;;;16.00;14.27;;;;;;;15.04;94.08;98294.00;5048783;27;103038;-61
2023/05/22 04:05:40;;;;;;;16.08;14.48;;;;;;;15.31;92.96;98301.94;5024026;27;102710;-61
2023/05/22 04:08:07;;;;;;;16.07;14.57;;;;;;;15.22;93.69;98300.16;5046412;27;103196;-62
2023/05/22 04:10:37;;;;;;;17.98;15.82;;;;;;;14.98;96.04;98292.75;5026975;27;106853;-57
2023/05/22 04:13:06;;;;;;;17.48;15.60;;;;;;;15.35;94.64;98298.00;5028188;27;104390;-59
2023/05/22 04:15:35;;;;;;;15.97;14.47;;;;;;;15.50;93.95;98307.16;5022934;27;102735;-59
2023/05/22 04:18:05;;;;;;;14.03;12.70;;;;;;;15.80;92.40;98307.78;5045247;27;102673;-59
2023/05/22 04:20:33;;;;;;;16.53;14.93;;;;;;;15.92;91.04;98298.53;5007887;27;104853;-63
2023/05/22 04:23:01;;;;;;;16.13;14.43;;;;;;;15.79;92.12;98288.28;5042215;27;103111;-64
2023/05/22 04:25:33;;;;;;;16.73;14.67;;;;;;;15.88;92.27;98300.72;5025565;27;102671;-64
2023/05/22 04:28:02;;;;;;;14.00;12.55;;;;;;;16.19;90.66;98298.44;5042607;27;102639;-64
2023/05/22 04:30:32;;;;;;;15.07;13.57;;;;;;;16.30;89.48;98303.53;5039301;27;103918;-64
2023/05/22 04:33:05;;;;;;;13.00;11.70;;;;;;;16.36;89.51;98305.56;5037410;27;103202;-64
2023/05/22 04:35:34;;;;;;;10.23;9.23;;;;;;;16.54;87.48;98309.03;5047123;27;102686;-64
2023/05/22 04:38:05;;;;;;;9.80;8.90;;;;;;;16.65;86.66;98302.59;5042283;27;102874;-64
2023/05/22 04:40:33;;;;;;;14.40;13.00;;;;;;;16.75;85.78;98309.50;5028109;27;103228;-64
2023/05/22 04:43:02;;;;;;;10.93;9.70;;;;;;;16.76;85.93;98313.00;5043993;27;103278;-64
2023/05/22 04:45:31;;;;;;;14.30;12.80;;;;;;;16.35;88.19;98319.88;5047295;27;102565;-64
2023/05/22 04:48:01;;;;;;;12.82;11.52;;;;;;;16.63;87.50;98313.44;5025667;27;102800;-64
2023/05/22 04:50:37;;;;;;;11.30;10.20;;;;;;;16.79;86.75;98315.34;5031726;27;103404;-64
2023/05/22 04:53:06;;;;;;;15.57;13.97;;;;;;;16.72;86.43;98317.81;5043943;27;108659;-64
2023/05/22 04:55:35;;;;;;;10.82;9.82;;;;;;;16.88;87.42;98321.56;5045207;27;103107;-64
2023/05/22 04:58:04;;;;;;;16.52;14.63;;;;;;;16.60;87.66;98324.41;5041708;27;103058;-64
2023/05/22 05:00:32;;;;;;;16.08;14.48;;;;;;;16.66;88.87;98321.13;5045080;27;103130;-64
2023/05/22 05:03:00;;;;;;;16.03;14.43;;;;;;;16.73;88.37;98324.81;5031634;27;103708;-64
2023/05/22 05:05:29;;;;;;;17.35;15.40;;;;;;;16.66;89.37;98321.13;5036901;27;103599;-64
2023/05/22 05:07:58;;;;;;;15.90;14.30;;;;;;;16.74;88.50;98320.31;5035246;27;102825;-64
2023/05/22 05:10:26;;;;;;;16.55;14.95;;;;;;;16.99;87.71;98321.28;5035127;27;105983;-64
2023/05/22 05:12:54;;;;;;;16.23;14.63;;;;;;;17.11;87.40;98328.00;5016730;27;105738;-64
2023/05/22 05:15:22;;;;;;;15.98;14.48;;;;;;;17.04;87.80;98321.66;5040109;27;103692;-64
2023/05/22 05:17:51;;;;;;;18.02;15.20;;;;;;;17.01;88.17;98319.31;5030849;27;102917;-64
2023/05/22 05:20:19;;;;;;;17.05;15.35;;;;;;;17.19;86.67;98320.03;5024450;27;103576;-64
2023/05/22 05:22:48;;;;;;;12.88;11.68;;;;;;;17.35;86.26;98325.41;5015143;27;109464;-64
2023/05/22 05:25:18;;;;;;;14.93;13.43;;;;;;;17.69;83.97;98323.53;5038817;27;102967;-64
2023/05/22 05:27:46;;;;;;;11.05;9.95;;;;;;;17.89;82.90;98322.22;5020697;27;102546;-64
2023/05/22 05:30:17;;;;;;;15.05;13.55;;;;;;;18.03;81.40;98322.56;5018393;27;103330;-64
2023/05/22 05:33:01;;;;;;;13.02;11.73;;;;;;;18.16;81.34;98314.91;5013516;27;103064;-63
2023/05/22 05:35:36;;;;;;;13.27;11.98;;;;;;;18.16;81.84;98313.03;5029727;27;102751;-64
2023/05/22 05:38:08;;;;;;;15.35;13.82;;;;;;;17.90;83.53;98313.22;5039105;27;102711;-64
2023/05/22 05:40:40;;;;;;;15.35;13.50;;;;;;;17.76;84.36;98319.22;5024965;27;103352;-64
2023/05/22 05:43:09;;;;;;;16.40;14.80;;;;;;;18.20;82.27;98317.06;5037091;27;109426;-64
2023/05/22 05:45:38;;;;;;;15.27;13.77;;;;;;;18.62;80.60;98326.72;5038006;27;103087;-64
2023/05/22 05:48:07;;;;;;;14.05;12.70;;;;;;;18.86;79.30;98322.16;5033519;27;102997;-64
2023/05/22 05:50:38;;;;;;;16.58;14.82;;;;;;;18.38;81.13;98322.25;5041562;27;103390;-64
2023/05/22 05:53:07;;;;;;;17.77;16.05;;;;;;;18.93;79.21;98324.97;5006702;27;105017;-64
2023/05/22 05:55:35;;;;;;;12.93;11.60;;;;;;;19.20;78.60;98315.69;5031149;27;102632;-64
2023/05/22 05:58:05;;;;;;;14.48;13.07;;;;;;;19.49;78.01;98316.75;5041140;27;103135;-64
2023/05/22 06:00:57;;;;;;;16.13;14.43;;;;;;;19.73;75.07;98326.50;5035741;27;103259;-64
2023/05/22 06:03:27;;;;;;;13.82;11.95;;;;;;;19.74;76.68;98322.78;5014647;27;103133;-64
2023/05/22 06:06:04;;;;;;;15.18;13.63;;;;;;;19.75;76.15;98321.78;5026892;27;102629;-64
2023/05/22 06:09:05;;;;;;;16.45;14.75;;;;;;;19.88;75.65;98327.38;4989702;27;102702;-64
2023/05/22 06:11:46;;;;;;;15.60;14.10;;;;;;;20.06;74.99;98327.91;5021109;27;103328;-64
2023/05/22 06:14:15;;;;;;;16.35;14.75;;;;;;;20.15;74.47;98334.06;5022056;27;106599;-59
2023/05/22 06:16:44;;;;;;;14.00;12.60;;;;;;;20.04;74.71;98327.25;5045571;27;102759;-64
2023/05/22 06:19:12;;;;;;;14.73;13.23;;;;;;;20.32;75.00;98324.91;5023344;27;104372;-64
2023/05/22 06:21:41;;;;;;;16.35;14.27;;;;;;;20.15;74.57;98329.50;5019608;27;105863;-64
2023/05/22 06:24:09;;;;;;;17.63;15.90;;;;;;;20.19;74.19;98332.66;5026916;27;103089;-64
2023/05/22 06:26:42;;;;;;;17.27;15.30;;;;;;;20.33;73.94;98328.38;5037775;27;102666;-63
2023/05/22 06:29:09;;;;;;;16.33;14.73;;;;;;;20.33;72.95;98331.91;5029716;27;102774;-60
2023/05/22 06:31:39;;;;;;;14.10;12.85;;;;;;;20.35;73.09;98331.75;5030398;27;103949;-60
2023/05/22 06:34:08;;;;;;;14.77;12.27;;;;;;;20.48;72.77;98329.28;5022644;27;109112;-60
2023/05/22 06:36:36;;;;;;;11.95;10.85;;;;;;;20.62;72.17;98333.81;5030871;27;102786;-60
2023/05/22 06:39:04;;;;;;;15.93;14.20;;;;;;;20.49;74.04;98325.59;5010368;27;102680;-60
2023/05/22 06:41:51;;;;;;;16.95;15.27;;;;;;;20.21;73.32;98334.16;5027907;27;103271;-59
2023/05/22 06:44:19;;;;;;;16.85;15.13;;;;;;;20.14;74.07;98327.84;5024277;27;104304;-60
2023/05/22 06:46:55;;;;;;;17.73;15.82;;;;;;;20.05;75.28;98334.28;5031216;27;102661;-60
2023/05/22 06:49:25;;;;;;;14.05;12.73;;;;;;;20.50;73.29;98337.97;5015904;27;102820;-60
2023/05/22 06:51:55;;;;;;;14.18;12.77;;;;;;;20.93;72.41;98334.50;4991470;27;104122;-60
2023/05/22 06:54:27;;;;;;;12.02;10.82;;;;;;;21.23;71.04;98336.19;5024842;27;103164;-59
2023/05/22 06:56:56;;;;;;;18.00;16.15;;;;;;;21.24;69.97;98343.25;5024579;27;102677;-60
2023/05/22 06:59:29;;;;;;;18.05;15.88;;;;;;;21.46;68.19;98329.88;5011080;27;102698;-59
2023/05/22 07:02:07;;;;;;;12.90;11.60;;;;;;;21.54;69.14;98337.81;5034216;27;103463;-60
2023/05/22 07:04:54;;;;;;;14.60;13.20;;;;;;;21.06;71.56;98340.06;5030261;27;103572;-59
2023/05/22 07:07:33;;;;;;;16.77;15.18;;;;;;;21.51;70.14;98343.56;5028920;27;102875;-60
2023/05/22 07:10:02;;;;;;;15.82;14.25;;;;;;;20.88;70.60;98334.25;5015425;27;102886;-60
2023/05/22 07:12:30;;;;;;;14.00;12.70;;;;;;;21.33;70.35;98335.91;5032954;27;103467;-60
2023/05/22 07:14:59;;;;;;;16.92;15.20;;;;;;;21.24;70.55;98337.03;5013124;27;103366;-59
2023/05/22 07:17:30;;;;;;;14.45;13.05;;;;;;;21.91;69.38;98341.19;5008760;27;103077;-59
2023/05/22 07:19:58;;;;;;;13.23;12.02;;;;;;;22.09;67.72;98338.03;5020511;27;102885;-59
2023/05/22 07:22:27;;;;;;;14.63;13.23;;;;;;;22.31;66.88;98337.03;4992679;27;105839;-60
2023/05/22 07:24:57;;;;;;;12.93;10.88;;;;;;;22.39;66.05;98338.75;5011195;27;103296;-60
2023/05/22 07:27:30;;;;;;;11.75;10.65;;;;;;;22.37;66.26;98336.22;5012807;27;102668;-61
2023/05/22 07:30:00;;;;;;;14.00;12.63;;;;;;;22.56;66.29;98329.34;5026438;27;102689;-60
2023/05/22 07:32:30;;;;;;;14.02;12.73;;;;;;;23.04;64.66;98330.34;5029953;27;103559;-60
2023/05/22 07:35:01;;;;;;;14.20;12.82;;;;;;;23.25;64.19;98334.78;5007951;27;103041;-60
2023/05/22 07:37:30;;;;;;;13.20;12.00;;;;;;;23.17;63.78;98332.25;4992300;27;102707;-60
2023/05/22 07:39:59;;;;;;;12.48;11.35;;;;;;;23.52;63.78;98337.44;5030221;27;102533;-60
2023/05/22 07:42:28;;;;;;;13.18;12.05;;;;;;;23.83;62.18;98328.81;5012105;27;104055;-59
2023/05/22 07:44:56;;;;;;;11.02;9.95;;;;;;;24.38;60.59;98321.47;5027694;27;103179;-60
2023/05/22 07:47:24;;;;;;;13.88;12.48;;;;;;;24.45;59.13;98333.91;5004626;27;102684;-60
2023/05/22 07:49:55;;;;;;;12.52;11.38;;;;;;;24.64;59.64;98326.88;5006620;27;102744;-60
2023/05/22 07:52:23;;;;;;;12.98;11.65;;;;;;;24.86;59.88;98330.19;4997079;27;104483;-60
2023/05/22 07:54:52;;;;;;;12.93;11.55;;;;;;;25.00;59.32;98334.53;4991451;27;104623;-60
2023/05/22 07:57:21;;;;;;;11.65;10.68;;;;;;;25.21;57.62;98331.56;5026195;27;102933;-60
2023/05/22 07:59:52;;;;;;;12.45;11.30;;;;;;;25.65;56.17;98331.66;5011458;27;102800;-60
2023/05/22 08:02:21;;;;;;;14.70;13.20;;;;;;;24.98;58.16;98328.53;5018618;27;103402;-60
2023/05/22 08:04:49;;;;;;;14.25;12.85;;;;;;;25.62;57.38;98331.25;5026183;27;104207;-60
2023/05/22 08:07:18;;;;;;;15.43;13.93;;;;;;;24.42;59.38;98322.72;5025582;27;102664;-61
2023/05/22 08:09:46;;;;;;;14.77;13.48;;;;;;;24.57;59.93;98331.44;5021647;27;102845;-60
2023/05/22 08:12:14;;;;;;;14.73;13.23;;;;;;;24.49;59.48;98321.69;5022337;27;110025;-60
2023/05/22 08:14:44;;;;;;;14.00;12.57;;;;;;;25.47;58.45;98328.81;5005658;27;107926;-60
2023/05/22 08:17:12;;;;;;;14.70;13.30;;;;;;;26.15;55.13;98327.25;5032119;27;102899;-60
2023/05/22 08:19:40;;;;;;;13.73;12.27;;;;;;;25.36;57.42;98335.69;5027579;27;102832;-60
2023/05/22 08:22:08;;;;;;;13.77;12.48;;;;;;;25.64;56.45;98335.41;5023932;27;106642;-60
2023/05/22 08:24:38;;;;;;;16.30;14.80;;;;;;;25.67;56.14;98324.16;5021800;27;103070;-60
2023/05/22 08:27:09;;;;;;;14.95;13.45;;;;;;;24.89;59.36;98329.78;5023067;27;102747;-60
2023/05/22 08:29:37;;;;;;;15.70;14.20;;;;;;;25.19;58.23;98325.56;5025671;27;102669;-60
2023/05/22 08:32:06;;;;;;;13.65;12.25;;;;;;;25.06;57.46;98321.03;5028201;27;103217;-60
2023/05/22 08:34:34;;;;;;;13.50;12.20;;;;;;;24.91;59.26;98323.13;5028336;27;103183;-60
2023/05/22 08:37:03;;;;;;;12.57;11.27;;;;;;;25.53;55.86;98321.72;5021943;27;103044;-60
2023/05/22 08:39:31;;;;;;;12.77;11.65;;;;;;;24.93;57.79;98325.59;5024064;27;102913;-60
2023/05/22 08:42:02;;;;;;;13.25;12.00;;;;;;;24.96;58.08;98325.19;5025552;27;107472;-60
2023/05/22 08:44:30;;;;;;;12.80;11.68;;;;;;;25.31;56.64;98322.00;5031088;27;103484;-60
2023/05/22 08:46:59;;;;;;;14.52;13.13;;;;;;;24.44;59.73;98316.09;5032492;27;102966;-60
2023/05/22 08:49:27;;;;;;;14.40;11.98;;;;;;;24.89;59.39;98319.81;5031976;27;102733;-61
2023/05/22 08:52:03;;;;;;;13.00;11.70;;;;;;;25.19;59.20;98317.44;5025765;27;103310;-60
2023/05/22 08:54:36;;;;;;;15.00;13.20;;;;;;;25.47;55.46;98318.00;5027077;27;103107;-60
2023/05/22 08:57:06;;;;;;;13.95;12.65;;;;;;;25.20;57.95;98319.94;5028444;27;102683;-60
2023/05/22 08:59:35;;;;;;;13.60;12.20;;;;;;;25.89;56.02;98314.66;5024513;27;102961;-61
2023/05/22 09:02:05;;;;;;;12.40;11.20;;;;;;;27.10;53.48;98309.75;5021674;27;103391;-60
2023/05/22 09:04:36;;;;;;;13.60;12.30;;;;;;;27.30;52.27;98314.94;5026921;27;103156;-60
2023/05/22 09:07:05;;;;;;;13.07;11.75;;;;;;;26.34;55.08;98320.00;5021273;27;102558;-60
2023/05/22 09:09:36;;;;;;;12.80;11.60;;;;;;;27.17;54.46;98313.22;5005642;27;103007;-60
2023/05/22 09:12:08;;;;;;;11.90;10.63;;;;;;;28.09;52.44;98314.78;5020763;27;103680;-60
2023/05/22 09:14:40;;;;;;;12.77;11.45;;;;;;;27.36;50.74;98314.03;5031342;27;106152;-60
2023/05/22 09:17:09;;;;;;;11.55;10.48;;;;;;;27.27;52.91;98309.97;5025633;27;102973;-60
2023/05/22 09:19:42;;;;;;;12.27;10.90;;;;;;;26.14;55.14;98311.19;5020046;27;103945;-60
2023/05/22 09:22:10;;;;;;;12.32;11.13;;;;;;;26.07;55.57;98311.22;5028192;27;103304;-61
2023/05/22 09:24:39;;;;;;;11.82;10.75;;;;;;;26.38;54.81;98313.94;5026393;27;103122;-61
2023/05/22 09:27:08;;;;;;;12.32;11.07;;;;;;;27.18;52.51;98316.75;5026011;27;103266;-61
2023/05/22 09:29:48;;;;;;;11.65;10.52;;;;;;;28.11;51.92;98308.06;5024838;27;102916;-60
2023/05/22 09:32:17;;;;;;;13.07;11.98;;;;;;;27.13;52.15;98308.47;5023588;27;107660;-60
2023/05/22 09:34:46;;;;;;;10.50;9.45;;;;;;;27.33;54.37;98312.63;5023486;27;103073;-66
2023/05/22 09:37:14;;;;;;;12.02;10.82;;;;;;;27.28;51.70;98312.47;5023719;27;102801;-66
2023/05/22 09:39:43;;;;;;;11.07;9.25;;;;;;;27.57;51.35;98305.44;5008992;27;102674;-66
2023/05/22 09:42:16;;;;;;;11.68;10.60;;;;;;;26.78;53.33;98305.47;5027466;27;103318;-61
2023/05/22 09:44:48;;;;;;;13.00;11.75;;;;;;;26.58;53.84;98305.66;5026982;27;103865;-61
2023/05/22 09:47:16;;;;;;;9.88;8.98;;;;;;;28.18;51.56;98307.97;5022512;27;102574;-67
2023/05/22 09:49:45;;;;;;;12.23;10.93;;;;;;;26.92;53.11;98307.84;5022598;27;102776;-66
2023/05/22 09:52:13;;;;;;;11.55;10.48;;;;;;;26.34;53.50;98307.31;5021872;27;103154;-66
2023/05/22 09:54:53;;;;;;;11.40;10.30;;;;;;;26.41;53.43;98309.97;5021393;27;103101;-66
2023/05/22 09:57:25;;;;;;;12.27;11.00;;;;;;;27.38;51.92;98295.66;5022636;27;102759;-66
2023/05/22 09:59:57;;;;;;;10.45;9.55;;;;;;;28.16;52.90;98296.50;5022407;27;103479;-66
2023/05/22 10:02:26;;;;;;;10.90;9.90;;;;;;;28.32;50.69;98309.44;5004908;27;110151;-66
2023/05/22 10:04:54;;;;;;;10.88;9.88;;;;;;;29.14;48.90;98302.13;5019924;27;104307;-67
2023/05/22 10:07:24;;;;;;;11.02;9.95;;;;;;;29.22;48.30;98301.81;5022491;27;102684;-67
2023/05/22 10:09:59;;;;;;;10.90;9.75;;;;;;;29.71;46.84;98308.53;5021849;27;102736;-66
2023/05/22 10:12:32;;;;;;;9.93;9.02;;;;;;;29.73;45.50;98299.06;5020935;27;104517;-67
2023/05/22 10:15:02;;;;;;;12.55;11.25;;;;;;;30.19;45.19;98294.50;5012126;27;105461;-66
2023/05/22 10:17:31;;;;;;;13.98;12.60;;;;;;;28.69;46.98;98293.78;5023394;27;102886;-66
2023/05/22 10:19:59;;;;;;;12.15;11.15;;;;;;;29.49;46.56;98300.22;5024453;27;102797;-67
2023/05/22 10:22:29;;;;;;;12.75;11.52;;;;;;;29.93;46.63;98303.25;5022416;27;104457;-67
2023/05/22 10:24:59;;;;;;;14.37;12.90;;;;;;;28.80;47.11;98294.84;5004887;27;104745;-67
2023/05/22 10:27:29;;;;;;;12.00;11.00;;;;;;;30.64;44.80;98289.84;5029160;27;102680;-67
2023/05/22 10:30:05;;;;;;;12.00;11.00;;;;;;;29.19;46.15;98294.13;5025505;27;102669;-67
2023/05/22 10:32:42;;;;;;;13.33;12.03;;;;;;;27.21;49.99;98294.59;5006399;27;105498;-67
2023/05/22 10:35:19;;;;;;;10.83;9.90;;;;;;;29.63;46.31;98292.59;5006103;27;103170;-67
2023/05/22 10:37:53;;;;;;;10.77;9.98;;;;;;;30.09;44.10;98286.97;5025121;27;103366;-67
2023/05/22 10:40:29;;;;;;;13.00;11.85;;;;;;;29.72;46.53;98285.72;5022205;27;102831;-67
2023/05/22 10:42:59;;;;;;;12.50;11.47;;;;;;;29.64;44.19;98292.34;5022829;27;103293;-67
2023/05/22 10:45:28;;;;;;;11.30;10.30;;;;;;;30.02;44.84;98275.41;5023630;27;104252;-66
2023/05/22 10:48:04;;;;;;;11.45;10.45;;;;;;;28.77;47.31;98281.75;5018515;27;103816;-67
2023/05/22 10:50:32;;;;;;;11.27;10.25;;;;;;;29.48;49.11;98284.94;5020063;27;102663;-64
2023/05/22 10:53:20;;;;;;;12.68;10.88;;;;;;;28.12;46.53;98285.31;5001109;27;103753;-65
2023/05/22 10:55:48;;;;;;;11.85;10.57;;;;;;;28.56;48.65;98272.25;5021139;27;103731;-65
2023/05/22 10:58:19;;;;;;;12.93;10.95;;;;;;;28.95;48.36;98277.00;5023007;27;102742;-66
2023/05/22 11:00:46;;;;;;;11.02;10.13;;;;;;;29.84;48.12;98270.16;5018122;27;102837;-65
2023/05/22 11:03:14;;;;;;;11.45;10.40;;;;;;;30.11;46.78;98265.78;5028942;27;106815;-67
2023/05/22 11:05:52;;;;;;;11.82;10.80;;;;;;;29.23;47.26;98263.50;5022793;27;105642;-65
2023/05/22 11:08:48;;;;;;;11.00;10.02;;;;;;;30.23;45.55;98269.22;5018377;27;103173;-66
2023/05/22 11:11:18;;;;;;;11.10;10.20;;;;;;;30.31;45.62;98260.66;5023265;27;103069;-66
2023/05/22 11:13:51;;;;;;;11.18;10.05;;;;;;;29.36;47.73;98256.13;5026756;27;103415;-65
2023/05/22 11:16:20;;;;;;;11.63;10.43;;;;;;;28.67;47.65;98257.84;5010269;27;103078;-66
2023/05/22 11:18:48;;;;;;;10.88;9.82;;;;;;;29.38;46.20;98254.00;5023759;27;102730;-66
2023/05/22 11:21:16;;;;;;;11.35;10.45;;;;;;;30.14;45.03;98248.09;5021739;27;102902;-64
2023/05/22 11:23:45;;;;;;;13.70;10.93;;;;;;;29.94;45.70;98250.47;5024809;27;103666;-65
2023/05/22 11:26:23;;;;;;;11.15;10.02;;;;;;;30.56;45.98;98240.38;5027395;27;104462;-64